Flight Track Log - Related Links

Times and Time Zones

All times are in EDT time to prevent confusion due to time zone crossing. See the SWA484 flight status page for this flight to view local times or setup timezone preferences in your user account.


Time Position Orientation Groundspeed Altitude Reporting Facility
EDT Latitude Longitude Course Direction KTS MPH feet Rate Location/Type
Fri 07:56:03 AM 35.1950 -80.9356 173° South 151 174 1,500  Level Atlanta Center
Fri 07:56:46 AM 35.1553 -80.9294 173° South 188 216 2,800 2,018 Climbing Atlanta Center
Fri 07:57:53 AM 35.1017 -80.8756 141° Southeast 253 291 5,200 1,880 Climbing Atlanta Center
Fri 07:59:32 AM 35.1022 -80.7358 90° East 306 352 8,000 2,113 Climbing Atlanta Center
Fri 08:00:32 AM 35.1417 -80.6531 60° Northeast 280 322 10,800 2,800 Climbing Atlanta Center
Fri 08:01:32 AM 35.1956 -80.5619 54° Northeast 309 356 13,600 1,600 Climbing Atlanta Center
Fri 08:02:32 AM 35.2511 -80.4656 55° Northeast 338 389 14,000 200 Climbing Atlanta Center
Fri 08:03:32 AM 35.3067 -80.3714 54° Northeast 345 397 14,000 1,400 Level Atlanta Center
Fri 08:04:32 AM 35.3622 -80.2722 55° Northeast 345 397 16,800 2,547 Climbing Atlanta Center
Fri 08:07:04 AM 35.4747 -79.9764 65° Northeast 371 427 23,000 2,519 Climbing Washington Center
Fri 08:08:04 AM 35.5111 -79.8406 72° East 396 456 25,700 1,967 Climbing Washington Center
Fri 08:09:06 AM 35.5447 -79.7097 72° East 403 464 27,000 1,550 Climbing Washington Center
Fri 08:10:04 AM 35.5833 -79.5583 73° East 409 471 28,800 1,017 Climbing Washington Center
Fri 08:11:04 AM 35.6144 -79.4372 72° East 413 475 29,000 99 Climbing Washington Center
Fri 08:12:05 AM 35.6642 -79.3144 63° Northeast 413 475 29,000  Level Washington Center
Fri 08:13:05 AM 35.7139 -79.1864 64° Northeast 407 468 29,000  Level Washington Center
Fri 08:14:05 AM 35.7703 -79.0481 63° Northeast 407 468 29,000  Level Washington Center
Fri 08:15:04 AM 35.8219 -78.9144 64° Northeast 412 474 29,000  Level Washington Center
Fri 08:16:04 AM 35.8819 -78.7836 60° Northeast 426 490 29,000  Level Washington Center
Fri 08:17:06 AM 35.9825 -78.6903 37° Northeast 426 490 29,000  Level Washington Center
Fri 08:18:04 AM 36.0850 -78.6017 35° Northeast 431 496 29,000  Level Washington Center
Fri 08:19:06 AM 36.1831 -78.5153 35° Northeast 437 503 29,000  Level Washington Center
Fri 08:20:06 AM 36.2853 -78.4239 36° Northeast 442 509 29,000  Level Washington Center
Fri 08:21:04 AM 36.3856 -78.3372 35° Northeast 442 509 29,000  Level Washington Center
Fri 08:22:04 AM 36.4856 -78.2478 36° Northeast 442 509 29,000 -295 Level Washington Center
Fri 08:23:06 AM 36.5814 -78.1578 37° Northeast 437 503 28,400 -492 Descending Washington Center
Fri 08:24:06 AM 36.6686 -78.0778 36° Northeast 437 503 28,000 -202 Descending Washington Center
Fri 08:25:05 AM 36.7664 -77.9903 36° Northeast 432 497 28,000  Level Washington Center
Fri 08:26:05 AM 36.8661 -77.9025 35° Northeast 437 503 28,000 -149 Level Washington Center
Fri 08:27:06 AM 36.9617 -77.8144 36° Northeast 437 503 27,700 -504 Descending Washington Center
Fri 08:28:04 AM 37.0614 -77.7261 35° Northeast 437 503 27,000 -356 Descending Washington Center
Fri 08:29:04 AM 37.1728 -77.6692 22° Northeast 432 497 27,000  Level Washington Center
Fri 08:30:05 AM 37.2864 -77.6228 18° North 421 484 27,000  Level Washington Center
Fri 08:31:06 AM 37.3997 -77.5733 19° North 421 484 27,000 -198 Level Washington Center
Fri 08:32:06 AM 37.5153 -77.5242 19° North 427 491 26,600 -1,500 Descending Washington Center
Fri 08:33:06 AM 37.6267 -77.4744 19° North 427 491 24,000 -1,831 Descending Washington Center
Fri 08:34:04 AM 37.7339 -77.4247 20° North 422 486 23,000 -508 Descending Washington Center
Fri 08:35:04 AM 37.8389 -77.3797 19° North 408 470 23,000  Level Washington Center
Fri 08:36:05 AM 37.9417 -77.3347 19° North 401 461 23,000 -541 Level Washington Center
Fri 08:37:06 AM 38.0444 -77.2925 18° North 389 448 21,900 -1,488 Descending Washington Center
Fri 08:38:06 AM 38.1450 -77.2472 19° North 384 442 20,000 -1,932 Descending Washington Center
Fri 08:39:04 AM 38.2375 -77.2042 20° North 378 435 18,100 -1,916 Descending Washington Center
Fri 08:40:05 AM 38.3319 -77.1614 20° North 360 414 16,200 -1,600 Descending Washington Center
Fri 08:41:04 AM 38.4181 -77.0994 29° Northeast 351 404 14,900 -1,714 Descending Washington Center
Fri 08:42:04 AM 38.4881 -77.0133 44° Northeast 344 396 12,800 -1,450 Descending Washington Center
Fri 08:43:04 AM 38.5556 -76.9297 44° Northeast 338 389 12,000 -1,100 Descending Washington Center
Fri 08:44:04 AM 38.6192 -76.8486 45° Northeast 332 382 10,600 -1,140 Descending Washington Center
Fri 08:45:05 AM 38.6803 -76.7750 43° Northeast 319 367 9,700 -1,104 Descending Washington Center
Fri 08:46:47 AM 38.7667 -76.6167 55° Northeast 271 312 7,600 -1,296 Descending Potomac TRACON
Fri 08:47:47 AM 38.8000 -76.5500 57° Northeast 272 313 6,200 -1,158 Descending Potomac TRACON
Fri 08:48:41 AM 38.8667 -76.5500 360° North 271 312 5,400 -947 Descending Potomac TRACON
Fri 08:49:41 AM 38.9333 -76.5833 339° North 272 313 4,400 -737 Descending Potomac TRACON
Fri 08:50:35 AM 38.9833 -76.6333 322° Northwest 273 314 4,000 -158 Descending Potomac TRACON
Fri 08:51:35 AM 39.0167 -76.7167 297° West 263 303 4,100  Climbing Potomac TRACON
Fri 08:52:35 AM 39.0667 -76.7833 314° West 246 283 4,000  Descending Potomac TRACON
Fri 08:53:35 AM 39.0833 -76.8500 288° West 231 266 4,100 53 Climbing Potomac TRACON
Fri 08:54:29 AM 39.1000 -76.9333 284° West 227 261 4,100 -53 Level Potomac TRACON
Fri 08:55:29 AM 39.1333 -76.9833 311° West 214 246 4,000 -446 Descending Potomac TRACON
Fri 08:56:30 AM 39.2000 -76.9833 360° North 215 247 3,200 -744 Descending Potomac TRACON
Fri 08:57:30 AM 39.1833 -76.9167 108° East 201 231 2,500 -368 Descending Potomac TRACON
Fri 08:58:24 AM 39.1833 -76.8667 90° East 183 211 2,500 -421 Level Potomac TRACON
Fri 08:59:24 AM 39.1833 -76.8000 90° East 170 196 1,700 -750 Descending Potomac TRACON
Fri 09:00:24 AM 39.1833 -76.7500 90° East 139 160 1,000 -700 Descending Potomac TRACON
Fri 09:01:24 AM 39.1833 -76.7000 90° East 137 158 300 -700 Descending Potomac TRACON

Login

Don't have an account? Register now (free) for customized features, flight alerts, and more!